createdAt,value
2017-07-02T00:00:34.162Z,55.70
2017-07-02T00:01:28.512Z,55.62
2017-07-02T00:02:28.986Z,55.74
2017-07-02T00:03:33.702Z,55.91
2017-07-02T00:04:33.984Z,56.07
2017-07-02T00:05:33.719Z,55.90
2017-07-02T00:06:34.026Z,56.01
2017-07-02T00:07:33.419Z,56.16
2017-07-02T00:08:23.874Z,56.03
2017-07-02T00:09:24.395Z,55.86
2017-07-02T00:10:27.955Z,55.86
2017-07-02T00:11:33.240Z,55.96
2017-07-02T00:12:28.642Z,56.77
2017-07-02T00:13:28.747Z,56.42
2017-07-02T00:14:31.230Z,56.87
2017-07-02T00:15:33.734Z,57.91
2017-07-02T00:16:29.169Z,57.40
2017-07-02T00:17:24.057Z,57.13
2017-07-02T00:18:33.367Z,57.27
2017-07-02T00:19:33.654Z,56.97
2017-07-02T00:20:28.675Z,57.20
2017-07-02T00:21:24.047Z,57.08
2017-07-02T00:22:28.479Z,57.08
2017-07-02T00:23:28.578Z,57.67
2017-07-02T00:24:28.678Z,58.09
2017-07-02T00:25:25.430Z,58.29
2017-07-02T00:26:23.865Z,57.82
2017-07-02T00:27:33.934Z,57.71
2017-07-02T00:28:41.605Z,58.03
2017-07-02T00:29:28.313Z,58.17
2017-07-02T00:30:33.577Z,58.01
2017-07-02T00:31:24.670Z,57.98
2017-07-02T00:32:37.995Z,58.26
2017-07-02T00:33:33.248Z,58.59
2017-07-02T00:34:33.541Z,58.88
2017-07-02T00:35:28.196Z,58.47
2017-07-02T00:36:27.954Z,58.58
2017-07-02T00:37:32.934Z,58.87
2017-07-02T00:38:28.007Z,58.90
2017-07-02T00:39:28.158Z,58.91
2017-07-02T00:40:27.940Z,60.00
2017-07-02T00:41:28.042Z,59.47
2017-07-02T00:42:30.105Z,59.16
2017-07-02T00:43:28.158Z,59.33
2017-07-02T00:44:33.480Z,59.53
2017-07-02T00:45:28.337Z,59.47
2017-07-02T00:46:33.667Z,59.71
2017-07-02T00:47:28.437Z,59.50
2017-07-02T00:48:28.855Z,59.40
2017-07-02T00:49:34.224Z,59.61
2017-07-02T00:50:28.422Z,59.72
2017-07-02T00:51:33.705Z,60.30
2017-07-02T00:52:24.596Z,60.38
2017-07-02T00:53:28.447Z,60.37
2017-07-02T00:54:33.727Z,60.41
2017-07-02T00:55:24.665Z,60.58
2017-07-02T00:56:28.445Z,60.81
2017-07-02T00:57:24.597Z,61.01
2017-07-02T00:58:28.753Z,60.85
2017-07-02T00:59:28.680Z,60.99
2017-07-02T01:00:28.791Z,61.01
2017-07-02T01:01:24.210Z,60.75
2017-07-02T01:02:22.991Z,60.81
2017-07-02T01:03:33.187Z,61.00
2017-07-02T01:04:33.474Z,61.04
2017-07-02T01:05:29.710Z,61.14
2017-07-02T01:06:34.295Z,61.90
2017-07-02T01:07:33.575Z,61.66
2017-07-02T01:08:28.799Z,61.87
2017-07-02T01:09:34.083Z,62.23
2017-07-02T01:10:32.987Z,63.01
2017-07-02T01:11:33.331Z,62.65
2017-07-02T01:12:33.640Z,62.29
2017-07-02T01:13:28.218Z,62.06
2017-07-02T01:14:29.739Z,62.72
2017-07-02T01:15:28.198Z,63.70
2017-07-02T01:16:28.161Z,63.23
2017-07-02T01:17:33.577Z,63.36
2017-07-02T01:18:28.243Z,63.54
2017-07-02T01:19:29.778Z,62.56
2017-07-02T01:20:34.077Z,62.19
2017-07-02T01:21:33.354Z,62.23
2017-07-02T01:22:28.525Z,61.96
2017-07-02T01:23:28.652Z,62.03
2017-07-02T01:24:28.812Z,62.00
2017-07-02T01:25:29.816Z,61.64
2017-07-02T01:26:34.059Z,61.92
2017-07-02T01:27:36.371Z,62.06
2017-07-02T01:28:33.698Z,62.17
2017-07-02T01:29:33.995Z,62.32
2017-07-02T01:30:33.305Z,61.84
2017-07-02T01:31:36.588Z,61.69
2017-07-02T01:32:28.821Z,61.94
2017-07-02T01:33:28.395Z,62.12
2017-07-02T01:34:28.725Z,62.24
2017-07-02T01:35:28.792Z,62.48
2017-07-02T01:36:28.925Z,62.52
2017-07-02T01:37:23.378Z,62.41
2017-07-02T01:38:33.685Z,62.40
2017-07-02T01:39:28.870Z,62.20
2017-07-02T01:40:29.049Z,62.70
2017-07-02T01:41:33.343Z,62.55
2017-07-02T01:42:28.791Z,62.19
2017-07-02T01:43:34.913Z,62.33
2017-07-02T01:44:26.868Z,62.54
2017-07-02T01:45:34.139Z,63.20
2017-07-02T01:46:28.090Z,63.34
2017-07-02T01:47:28.091Z,63.20
2017-07-02T01:48:33.362Z,63.45
2017-07-02T01:49:28.798Z,63.95
2017-07-02T01:50:28.374Z,64.38
2017-07-02T01:51:33.915Z,65.43
2017-07-02T01:52:33.232Z,65.19
2017-07-02T01:53:33.445Z,65.12
2017-07-02T01:54:23.562Z,66.37
2017-07-02T01:55:33.830Z,66.29
2017-07-02T01:56:28.874Z,67.30
2017-07-02T01:57:34.546Z,67.31
2017-07-02T01:58:35.833Z,67.92
2017-07-02T01:59:34.911Z,68.62
2017-07-02T02:00:27.983Z,68.42
2017-07-02T02:01:28.037Z,69.19
2017-07-02T02:02:27.889Z,69.43
2017-07-02T02:03:34.207Z,69.25
2017-07-02T02:04:28.694Z,70.20
2017-07-02T02:05:28.872Z,70.40
2017-07-02T02:06:34.161Z,72.01
2017-07-02T02:07:30.683Z,74.07
2017-07-02T02:08:28.870Z,74.18
2017-07-02T02:09:29.049Z,74.23
2017-07-02T02:10:33.353Z,73.76
2017-07-02T02:11:28.414Z,73.18
2017-07-02T02:12:36.867Z,74.30
2017-07-02T02:13:34.156Z,74.59
2017-07-02T02:14:28.456Z,74.86
2017-07-02T02:15:28.640Z,75.05
2017-07-02T02:16:28.691Z,75.80
2017-07-02T02:17:28.952Z,75.51
2017-07-02T02:18:27.971Z,76.17
2017-07-02T02:19:27.998Z,75.53
2017-07-02T02:20:28.441Z,75.51
2017-07-02T02:21:28.643Z,75.41
2017-07-02T02:22:28.721Z,74.82
2017-07-02T02:23:28.880Z,75.06
2017-07-02T02:24:34.182Z,75.19
2017-07-02T02:25:28.382Z,75.79
2017-07-02T02:26:28.439Z,76.38
2017-07-02T02:27:28.896Z,76.90
2017-07-02T02:28:35.137Z,76.52
2017-07-02T02:29:22.830Z,76.43
2017-07-02T02:30:34.124Z,76.43
2017-07-02T02:31:36.383Z,75.65
2017-07-02T02:32:18.033Z,75.50
2017-07-02T02:33:28.232Z,75.86
2017-07-02T02:34:28.390Z,76.17
2017-07-02T02:35:33.660Z,75.54
2017-07-02T02:36:33.975Z,75.39
2017-07-02T02:37:29.081Z,75.41
2017-07-02T02:38:28.251Z,75.58
2017-07-02T02:39:28.447Z,76.53
2017-07-02T02:40:28.897Z,76.17
2017-07-02T02:41:33.648Z,75.54
2017-07-02T02:42:35.119Z,76.34
2017-07-02T02:43:28.313Z,76.89
2017-07-02T02:44:33.589Z,76.73
2017-07-02T02:45:28.661Z,76.69
2017-07-02T02:46:29.112Z,76.84
2017-07-02T02:47:33.395Z,77.38
2017-07-02T02:48:28.487Z,76.99
2017-07-02T02:49:28.718Z,76.53
2017-07-02T02:50:34.141Z,76.89
2017-07-02T02:51:28.330Z,77.27
2017-07-02T02:52:33.818Z,77.33
2017-07-02T02:53:29.025Z,77.70
2017-07-02T02:54:33.401Z,78.03
2017-07-02T02:55:33.635Z,78.20
2017-07-02T02:56:28.950Z,77.89
2017-07-02T02:57:27.523Z,77.77
2017-07-02T02:58:27.946Z,77.81
2017-07-02T02:59:27.588Z,78.18
2017-07-02T03:00:33.894Z,77.92
2017-07-02T03:01:34.183Z,78.12
2017-07-02T03:02:28.008Z,78.77
2017-07-02T03:03:23.738Z,78.12
2017-07-02T03:04:28.829Z,78.59
2017-07-02T03:05:30.319Z,78.90
2017-07-02T03:06:28.521Z,78.66
2017-07-02T03:07:33.758Z,78.44
2017-07-02T03:08:34.156Z,78.16
2017-07-02T03:09:28.608Z,78.35
2017-07-02T03:10:33.950Z,78.12
2017-07-02T03:11:27.769Z,78.79
2017-07-02T03:12:34.184Z,78.48
2017-07-02T03:13:23.614Z,78.55
2017-07-02T03:14:33.896Z,79.04
2017-07-02T03:15:34.241Z,79.16
2017-07-02T03:16:33.539Z,79.05
2017-07-02T03:17:40.240Z,78.78
2017-07-02T03:18:28.569Z,79.15
2017-07-02T03:19:28.599Z,79.37
2017-07-02T03:20:29.060Z,80.02
2017-07-02T03:21:30.659Z,79.95
2017-07-02T03:22:31.850Z,80.34
2017-07-02T03:23:34.486Z,80.19
2017-07-02T03:24:28.681Z,80.02
2017-07-02T03:25:28.861Z,79.58
2017-07-02T03:26:34.162Z,79.60
2017-07-02T03:27:33.665Z,79.80
2017-07-02T03:28:34.805Z,80.40
2017-07-02T03:29:29.280Z,81.25
2017-07-02T03:30:22.929Z,80.44
2017-07-02T03:31:27.841Z,80.50
2017-07-02T03:32:34.151Z,80.04
2017-07-02T03:33:33.434Z,80.07
2017-07-02T03:34:28.963Z,80.05
2017-07-02T03:35:32.942Z,80.70
2017-07-02T03:36:33.221Z,81.14
2017-07-02T03:37:28.387Z,81.32
2017-07-02T03:38:28.313Z,80.58
2017-07-02T03:39:27.874Z,80.12
2017-07-02T03:40:29.069Z,80.67
2017-07-02T03:41:33.971Z,80.58
2017-07-02T03:42:33.243Z,80.31
2017-07-02T03:43:29.336Z,80.63
2017-07-02T03:44:34.004Z,80.07
2017-07-02T03:45:33.772Z,80.63
2017-07-02T03:46:28.949Z,80.47
2017-07-02T03:47:33.211Z,80.03
2017-07-02T03:48:33.434Z,79.65
2017-07-02T03:49:33.730Z,79.62
2017-07-02T03:50:33.435Z,80.10
2017-07-02T03:51:28.001Z,80.38
2017-07-02T03:52:33.515Z,80.84
2017-07-02T03:53:33.810Z,80.89
2017-07-02T03:54:28.362Z,81.30
2017-07-02T03:55:31.535Z,80.49
2017-07-02T03:56:33.899Z,80.36
2017-07-02T03:57:34.132Z,79.87
2017-07-02T03:58:34.433Z,80.07
2017-07-02T03:59:33.901Z,80.35
2017-07-02T04:00:34.458Z,80.16
2017-07-02T04:01:33.724Z,80.23
2017-07-02T04:02:23.423Z,80.28
2017-07-02T04:03:33.685Z,80.94
2017-07-02T04:04:29.177Z,80.99
2017-07-02T04:05:33.476Z,81.03
2017-07-02T04:06:28.932Z,80.88
2017-07-02T04:07:32.705Z,80.67
2017-07-02T04:08:29.192Z,80.29
2017-07-02T04:09:28.415Z,80.62
2017-07-02T04:10:28.518Z,80.95
2017-07-02T04:11:34.296Z,80.61
2017-07-02T04:12:34.130Z,80.51
2017-07-02T04:13:28.348Z,80.34
2017-07-02T04:14:33.597Z,80.97
2017-07-02T04:15:33.912Z,80.23
2017-07-02T04:16:29.106Z,80.45
2017-07-02T04:17:28.395Z,80.30
2017-07-02T04:18:34.057Z,80.18
2017-07-02T04:19:33.357Z,80.50
2017-07-02T04:20:28.481Z,80.11
2017-07-02T04:21:34.104Z,80.14
2017-07-02T04:22:33.752Z,80.67
2017-07-02T04:23:28.925Z,81.68
2017-07-02T04:24:28.030Z,81.17
2017-07-02T04:25:11.777Z,81.67
2017-07-02T04:27:37.782Z,81.87
2017-07-02T04:28:34.926Z,81.04
2017-07-02T04:29:40.926Z,80.80
2017-07-02T04:30:33.229Z,80.77
2017-07-02T04:31:33.575Z,80.39
2017-07-02T04:32:28.807Z,80.51
2017-07-02T04:33:28.859Z,80.90
2017-07-02T04:34:23.163Z,81.72
2017-07-02T04:35:24.569Z,81.33
2017-07-02T04:36:33.868Z,80.41
2017-07-02T04:37:23.338Z,81.17
2017-07-02T04:38:17.979Z,81.32
2017-07-02T04:39:28.663Z,81.09
2017-07-02T04:40:33.897Z,81.59
2017-07-02T04:41:29.060Z,82.64
2017-07-02T04:42:33.350Z,81.75
2017-07-02T04:43:33.967Z,81.37
2017-07-02T04:44:33.229Z,81.01
2017-07-02T04:45:33.838Z,80.82
2017-07-02T04:46:29.023Z,80.95
2017-07-02T04:47:28.166Z,80.82
2017-07-02T04:48:24.228Z,81.32
2017-07-02T04:49:27.784Z,81.56
2017-07-02T04:50:24.594Z,82.31
2017-07-02T04:51:28.767Z,81.87
2017-07-02T04:52:28.341Z,81.78
2017-07-02T04:53:12.407Z,82.24
2017-07-02T04:54:27.837Z,82.82
2017-07-02T04:55:28.965Z,82.57
2017-07-02T04:56:33.268Z,81.96
2017-07-02T04:57:28.722Z,82.31
2017-07-02T04:58:34.018Z,83.17
2017-07-02T04:59:33.299Z,83.07
2017-07-02T05:00:28.237Z,82.17
2017-07-02T05:01:28.686Z,82.36
2017-07-02T05:02:33.975Z,82.21
2017-07-02T05:03:33.254Z,82.36
2017-07-02T05:04:28.148Z,82.62
2017-07-02T05:05:33.691Z,82.51
2017-07-02T05:06:28.917Z,83.09
2017-07-02T05:07:34.261Z,83.06
2017-07-02T05:08:33.666Z,83.16
2017-07-02T05:09:33.958Z,83.36
2017-07-02T05:10:33.239Z,83.37
2017-07-02T05:11:28.575Z,84.33
2017-07-02T05:12:29.225Z,84.81
2017-07-02T05:13:28.741Z,85.30
2017-07-02T05:14:34.368Z,85.36
2017-07-02T05:15:28.844Z,85.60
2017-07-02T05:16:28.957Z,86.48
2017-07-02T05:17:27.978Z,86.88
2017-07-02T05:18:28.025Z,85.52
2017-07-02T05:19:28.234Z,86.07
2017-07-02T05:20:28.350Z,85.02
2017-07-02T05:21:33.662Z,86.53
2017-07-02T05:22:34.849Z,87.07
2017-07-02T05:23:29.006Z,87.67
2017-07-02T05:24:32.917Z,87.08
2017-07-02T05:25:29.034Z,86.31
2017-07-02T05:26:33.320Z,85.89
2017-07-02T05:27:24.449Z,85.46
2017-07-02T05:28:28.243Z,85.88
2017-07-02T05:29:33.857Z,85.98
2017-07-02T05:30:29.034Z,85.35
2017-07-02T05:31:28.114Z,85.47
2017-07-02T05:32:28.245Z,86.27
2017-07-02T05:33:34.129Z,86.78
2017-07-02T05:34:28.316Z,86.61
2017-07-02T05:35:28.787Z,86.62
2017-07-02T05:36:28.858Z,87.80
2017-07-02T05:37:34.156Z,87.22
2017-07-02T05:38:33.477Z,87.82
2017-07-02T05:39:28.918Z,88.51
2017-07-02T05:40:28.016Z,87.67
2017-07-02T05:41:28.235Z,86.67
2017-07-02T05:42:28.452Z,87.04
2017-07-02T05:43:34.070Z,87.02
2017-07-02T05:44:28.127Z,87.08
2017-07-02T05:45:28.344Z,87.24
2017-07-02T05:46:33.641Z,87.66
2017-07-02T05:47:28.694Z,86.86
2017-07-02T05:48:29.046Z,86.72
2017-07-02T05:49:33.380Z,86.98
2017-07-02T05:50:33.618Z,86.30
2017-07-02T05:51:33.926Z,86.27
2017-07-02T05:52:27.716Z,86.43
2017-07-02T05:53:31.195Z,86.93
2017-07-02T05:54:28.389Z,86.90
2017-07-02T05:55:28.577Z,87.93
2017-07-02T05:56:28.638Z,87.44
2017-07-02T05:57:33.947Z,87.43
2017-07-02T05:58:33.223Z,86.91
2017-07-02T05:59:33.882Z,86.58
2017-07-02T06:00:29.302Z,86.60
2017-07-02T06:01:33.604Z,86.77
2017-07-02T06:02:27.982Z,87.14
2017-07-02T06:03:27.878Z,87.34
2017-07-02T06:04:24.606Z,87.53
2017-07-02T06:05:34.046Z,87.54
2017-07-02T06:06:33.337Z,87.10
2017-07-02T06:07:33.608Z,86.42
2017-07-02T06:08:33.907Z,87.19
2017-07-02T06:09:33.693Z,87.52
2017-07-02T06:10:33.649Z,87.76
2017-07-02T06:11:29.109Z,88.20
2017-07-02T06:12:33.592Z,87.92
2017-07-02T06:13:28.461Z,87.80
2017-07-02T06:14:28.649Z,87.88
2017-07-02T06:15:33.948Z,87.82
2017-07-02T06:16:33.229Z,87.98
2017-07-02T06:17:28.299Z,87.69
2017-07-02T06:18:28.086Z,88.01
2017-07-02T06:19:33.357Z,87.71
2017-07-02T06:20:28.530Z,88.37
2017-07-02T06:21:31.691Z,88.09
2017-07-02T06:22:23.966Z,89.07
2017-07-02T06:23:27.507Z,88.55
2017-07-02T06:24:31.661Z,88.64
2017-07-02T06:25:28.997Z,88.71
2017-07-02T06:26:33.237Z,88.96
2017-07-02T06:27:28.204Z,88.88
2017-07-02T06:28:33.002Z,89.22
2017-07-02T06:29:27.628Z,89.43
2017-07-02T06:30:33.816Z,89.28
2017-07-02T06:31:34.094Z,88.86
2017-07-02T06:32:28.262Z,88.04
2017-07-02T06:33:28.065Z,88.86
2017-07-02T06:34:33.339Z,88.45
2017-07-02T06:35:34.484Z,88.82
2017-07-02T06:36:28.951Z,88.82
2017-07-02T06:37:28.426Z,88.98
2017-07-02T06:38:34.118Z,88.74
2017-07-02T06:39:33.314Z,88.85
2017-07-02T06:40:24.386Z,88.25
2017-07-02T06:41:28.857Z,87.93
2017-07-02T06:42:34.136Z,87.71
2017-07-02T06:43:33.535Z,87.50
2017-07-02T06:44:33.818Z,87.33
2017-07-02T06:45:34.109Z,87.21
2017-07-02T06:46:27.848Z,86.89
2017-07-02T06:47:34.149Z,87.16
2017-07-02T06:48:28.377Z,87.19
2017-07-02T06:49:28.366Z,87.29
2017-07-02T06:50:28.859Z,87.11
2017-07-02T06:51:28.832Z,87.23
2017-07-02T06:52:29.020Z,86.88
2017-07-02T06:53:28.204Z,86.93
2017-07-02T06:54:28.376Z,88.17
2017-07-02T06:55:28.462Z,88.10
2017-07-02T06:56:28.629Z,87.82
2017-07-02T06:57:28.779Z,87.57
2017-07-02T06:58:34.897Z,87.10
2017-07-02T06:59:29.047Z,86.77
2017-07-02T07:00:28.068Z,87.21
2017-07-02T07:01:28.086Z,87.33
2017-07-02T07:02:33.351Z,87.10
2017-07-02T07:03:28.783Z,87.58
2017-07-02T07:04:28.947Z,87.83
2017-07-02T07:05:33.290Z,88.26
2017-07-02T07:06:33.878Z,88.07
2017-07-02T07:07:29.918Z,87.79
2017-07-02T07:08:33.228Z,87.92
2017-07-02T07:09:33.512Z,88.33
2017-07-02T07:10:28.699Z,88.66
2017-07-02T07:11:29.120Z,88.50
2017-07-02T07:12:28.582Z,87.96
2017-07-02T07:13:33.872Z,87.99
2017-07-02T07:14:28.924Z,87.69
2017-07-02T07:15:31.065Z,87.40
2017-07-02T07:16:28.594Z,87.47
2017-07-02T07:17:28.654Z,87.17
2017-07-02T07:18:29.123Z,87.33
2017-07-02T07:19:28.338Z,87.27
2017-07-02T07:20:32.903Z,87.57
2017-07-02T07:21:35.098Z,87.46
2017-07-02T07:22:33.385Z,88.41
2017-07-02T07:23:28.437Z,88.31
2017-07-02T07:24:28.639Z,88.85
2017-07-02T07:25:33.971Z,88.18
2017-07-02T07:26:33.270Z,88.48
2017-07-02T07:27:28.750Z,88.10
2017-07-02T07:28:28.357Z,88.13
2017-07-02T07:29:33.634Z,87.69
2017-07-02T07:30:28.846Z,88.27
2017-07-02T07:31:34.169Z,87.94
2017-07-02T07:32:33.476Z,87.82
2017-07-02T07:33:28.648Z,87.77
2017-07-02T07:34:28.864Z,87.87
2017-07-02T07:35:28.942Z,88.04
2017-07-02T07:36:24.187Z,87.84
2017-07-02T07:37:33.492Z,88.54
2017-07-02T07:38:33.813Z,88.20
2017-07-02T07:39:34.117Z,88.21
2017-07-02T07:40:34.275Z,87.98
2017-07-02T07:41:34.137Z,88.19
2017-07-02T07:42:28.690Z,88.16
2017-07-02T07:43:28.915Z,88.25
2017-07-02T07:44:29.955Z,87.89
2017-07-02T07:45:33.604Z,87.98
2017-07-02T07:46:28.870Z,88.18
2017-07-02T07:47:34.154Z,87.92
2017-07-02T07:48:28.353Z,87.99
2017-07-02T07:49:28.399Z,88.02
2017-07-02T07:50:28.882Z,88.54
2017-07-02T07:51:29.017Z,88.91
2017-07-02T07:52:33.279Z,88.68
2017-07-02T07:53:28.743Z,88.64
2017-07-02T07:54:28.907Z,88.37
2017-07-02T07:55:29.081Z,88.45
2017-07-02T07:56:30.839Z,88.68
2017-07-02T07:57:29.063Z,88.83
2017-07-02T07:58:28.256Z,88.51
2017-07-02T07:59:28.438Z,88.56
2017-07-02T08:00:28.628Z,88.72
2017-07-02T08:01:28.228Z,88.38
2017-07-02T08:02:33.540Z,88.67
2017-07-02T08:03:28.980Z,88.80
2017-07-02T08:04:33.287Z,88.66
2017-07-02T08:05:33.401Z,88.94
2017-07-02T08:06:23.134Z,88.64
2017-07-02T08:07:23.266Z,88.45
2017-07-02T08:08:33.538Z,88.86
2017-07-02T08:09:33.966Z,88.57
2017-07-02T08:10:33.265Z,89.08
2017-07-02T08:11:33.195Z,88.87
2017-07-02T08:12:33.480Z,88.64
2017-07-02T08:13:23.923Z,88.75
2017-07-02T08:14:27.985Z,88.41
2017-07-02T08:15:33.261Z,88.16
2017-07-02T08:16:28.714Z,87.88
2017-07-02T08:17:29.051Z,87.77
2017-07-02T08:18:33.328Z,87.66
2017-07-02T08:19:28.537Z,87.39
2017-07-02T08:20:28.183Z,87.26
2017-07-02T08:21:28.175Z,87.55
2017-07-02T08:22:33.418Z,87.51
2017-07-02T08:23:33.993Z,87.38
2017-07-02T08:24:33.245Z,87.42
2017-07-02T08:25:33.803Z,87.73
2017-07-02T08:26:34.105Z,87.62
2017-07-02T08:27:28.341Z,87.50
2017-07-02T08:28:28.566Z,87.27
2017-07-02T08:29:28.628Z,87.20
2017-07-02T08:30:29.055Z,87.33
2017-07-02T08:31:33.357Z,87.45
2017-07-02T08:32:28.808Z,87.55
2017-07-02T08:33:23.258Z,87.32
2017-07-02T08:34:33.765Z,87.35
2017-07-02T08:35:28.597Z,87.40
2017-07-02T08:36:33.878Z,87.36
2017-07-02T08:37:35.162Z,87.42
2017-07-02T08:38:28.356Z,87.58
2017-07-02T08:39:30.905Z,87.61
2017-07-02T08:40:29.205Z,87.31
2017-07-02T08:41:27.684Z,87.71
2017-07-02T08:42:29.119Z,87.88
2017-07-02T08:43:28.269Z,87.64
2017-07-02T08:44:28.447Z,87.46
2017-07-02T08:45:28.627Z,87.78
2017-07-02T08:46:24.593Z,88.04
2017-07-02T08:47:31.957Z,88.03
2017-07-02T08:48:33.237Z,87.85
2017-07-02T08:49:28.449Z,87.83
2017-07-02T08:50:33.143Z,87.76
2017-07-02T08:51:23.447Z,87.63
2017-07-02T08:52:28.869Z,87.24
2017-07-02T08:53:28.865Z,87.13
2017-07-02T08:54:24.453Z,87.41
2017-07-02T08:55:23.655Z,87.35
2017-07-02T08:56:23.455Z,86.87
2017-07-02T08:57:27.707Z,87.03
2017-07-02T08:58:24.448Z,87.04
2017-07-02T08:59:28.880Z,87.11
2017-07-02T09:00:28.861Z,86.90
2017-07-02T09:01:34.146Z,86.90
2017-07-02T09:02:28.033Z,86.80
2017-07-02T09:03:27.501Z,86.83
2017-07-02T09:04:18.226Z,87.12
2017-07-02T09:05:32.939Z,87.55
2017-07-02T09:06:27.810Z,87.18
2017-07-02T09:07:29.130Z,87.07
2017-07-02T09:08:23.453Z,87.06
2017-07-02T09:09:33.685Z,87.27
2017-07-02T09:10:24.290Z,87.18
2017-07-02T09:11:22.857Z,87.27
2017-07-02T09:12:32.646Z,87.39
2017-07-02T09:13:28.337Z,87.51
2017-07-02T09:14:23.854Z,87.67
2017-07-02T09:15:28.979Z,87.82
2017-07-02T09:16:27.539Z,87.86
2017-07-02T09:17:23.173Z,88.01
2017-07-02T09:18:23.828Z,88.08
2017-07-02T09:19:33.778Z,88.43
2017-07-02T09:20:28.134Z,88.28
2017-07-02T09:21:32.975Z,87.80
2017-07-02T09:22:27.984Z,87.64
2017-07-02T09:23:27.626Z,87.30
2017-07-02T09:24:28.450Z,87.43
2017-07-02T09:25:23.235Z,87.48
2017-07-02T09:26:28.706Z,87.27
2017-07-02T09:27:28.859Z,87.50
2017-07-02T09:28:29.057Z,87.82
2017-07-02T09:29:33.656Z,87.57
2017-07-02T09:30:34.007Z,87.59
2017-07-02T09:31:23.340Z,87.48
2017-07-02T09:32:28.560Z,87.43
2017-07-02T09:33:23.949Z,87.39
2017-07-02T09:34:33.250Z,87.48
2017-07-02T09:35:33.546Z,87.18
2017-07-02T09:36:33.908Z,87.00
2017-07-02T09:37:29.097Z,87.42
2017-07-02T09:38:33.402Z,87.24
2017-07-02T09:39:28.884Z,87.15
2017-07-02T09:40:34.548Z,87.33
2017-07-02T09:41:27.823Z,87.84
2017-07-02T09:42:28.693Z,87.98
2017-07-02T09:43:28.800Z,87.88
2017-07-02T09:44:34.128Z,88.18
2017-07-02T09:45:28.637Z,88.26
2017-07-02T09:46:28.718Z,88.23
2017-07-02T09:47:28.723Z,88.29
2017-07-02T09:48:28.326Z,88.43
2017-07-02T09:49:28.241Z,88.25
2017-07-02T09:50:33.613Z,88.30
2017-07-02T09:51:33.948Z,88.25
2017-07-02T09:52:28.359Z,88.19
2017-07-02T09:53:27.951Z,88.12
2017-07-02T09:54:33.295Z,88.22
2017-07-02T09:55:23.049Z,88.24
2017-07-02T09:56:23.211Z,88.07
2017-07-02T09:57:23.344Z,88.40
2017-07-02T09:58:33.623Z,88.40
2017-07-02T09:59:28.847Z,88.45
2017-07-02T10:00:28.532Z,88.31
2017-07-02T10:01:18.812Z,88.37
2017-07-02T10:02:27.797Z,88.37
2017-07-02T10:03:28.995Z,88.16
2017-07-02T10:04:22.741Z,88.23
2017-07-02T10:05:27.767Z,88.42
2017-07-02T10:06:23.510Z,88.45
2017-07-02T10:07:34.370Z,88.42
2017-07-02T10:08:23.964Z,88.36
2017-07-02T10:09:27.750Z,88.48
2017-07-02T10:10:23.498Z,88.30
2017-07-02T10:11:28.690Z,88.12
2017-07-02T10:12:34.015Z,88.27
2017-07-02T10:13:33.089Z,88.57
2017-07-02T10:14:27.620Z,88.72
2017-07-02T10:15:33.928Z,88.63
2017-07-02T10:16:28.057Z,88.59
2017-07-02T10:17:23.606Z,88.45
2017-07-02T10:18:28.453Z,88.70
2017-07-02T10:19:23.200Z,88.57
2017-07-02T10:20:28.033Z,88.56
2017-07-02T10:21:23.502Z,88.39
2017-07-02T10:22:34.551Z,88.35
2017-07-02T10:23:28.709Z,88.31
2017-07-02T10:24:34.014Z,88.20
2017-07-02T10:25:33.038Z,88.21
2017-07-02T10:26:33.137Z,88.16
2017-07-02T10:27:23.536Z,88.43
2017-07-02T10:28:24.389Z,88.55
2017-07-02T10:29:33.698Z,88.79
2017-07-02T10:30:23.897Z,88.62
2017-07-02T10:31:34.151Z,88.36
2017-07-02T10:32:28.319Z,88.13
2017-07-02T10:33:33.732Z,88.15
2017-07-02T10:34:28.958Z,88.48
2017-07-02T10:35:33.257Z,88.68
2017-07-02T10:36:29.199Z,88.94
2017-07-02T10:37:28.705Z,88.70
2017-07-02T10:38:33.985Z,88.74
2017-07-02T10:39:22.498Z,88.70
2017-07-02T10:40:24.535Z,89.10
2017-07-02T10:41:24.022Z,89.16
2017-07-02T10:42:28.237Z,89.24
2017-07-02T10:43:29.435Z,89.35
2017-07-02T10:44:28.950Z,89.07
2017-07-02T10:45:32.687Z,89.17
2017-07-02T10:46:33.979Z,88.89
2017-07-02T10:47:33.365Z,89.04
2017-07-02T10:48:28.440Z,88.97
2017-07-02T10:49:28.256Z,88.89
2017-07-02T10:50:33.360Z,89.11
2017-07-02T10:51:33.593Z,88.87
2017-07-02T10:52:36.910Z,88.74
2017-07-02T10:53:29.410Z,88.80
2017-07-02T10:54:24.319Z,89.02
2017-07-02T10:55:33.602Z,88.96
2017-07-02T10:56:33.651Z,88.59
2017-07-02T10:57:29.744Z,88.86
2017-07-02T10:58:28.939Z,88.70
2017-07-02T10:59:29.107Z,88.34
2017-07-02T11:00:33.380Z,88.06
2017-07-02T11:01:23.860Z,87.62
2017-07-02T11:02:34.169Z,87.78
2017-07-02T11:03:23.142Z,87.77
2017-07-02T11:04:28.610Z,87.90
2017-07-02T11:05:33.909Z,88.04
2017-07-02T11:06:33.963Z,87.50
2017-07-02T11:07:33.202Z,87.27
2017-07-02T11:08:43.314Z,87.30
2017-07-02T11:09:42.781Z,86.82
2017-07-02T11:10:29.858Z,87.01
2017-07-02T11:11:24.197Z,86.88
2017-07-02T11:12:23.547Z,86.32
2017-07-02T11:13:28.773Z,86.34
2017-07-02T11:14:29.989Z,86.35
2017-07-02T11:15:31.137Z,86.15
2017-07-02T11:16:28.167Z,86.10
2017-07-02T11:17:33.616Z,86.34
2017-07-02T11:18:24.204Z,86.19
2017-07-02T11:19:28.137Z,86.15
2017-07-02T11:20:33.385Z,86.26
2017-07-02T11:21:23.897Z,86.55
2017-07-02T11:22:28.673Z,86.70
2017-07-02T11:23:33.949Z,86.76
2017-07-02T11:24:27.986Z,86.31
2017-07-02T11:25:27.906Z,85.23
2017-07-02T11:26:34.438Z,84.00
2017-07-02T11:27:28.631Z,84.90
2017-07-02T11:28:28.581Z,84.97
2017-07-02T11:29:31.752Z,85.06
2017-07-02T11:30:28.870Z,85.59
2017-07-02T11:31:34.159Z,85.97
2017-07-02T11:32:33.466Z,85.69
2017-07-02T11:33:28.649Z,85.69
2017-07-02T11:34:28.238Z,85.46
2017-07-02T11:35:27.845Z,85.57
2017-07-02T11:36:34.148Z,85.46
2017-07-02T11:37:28.616Z,85.30
2017-07-02T11:38:28.670Z,85.99
2017-07-02T11:39:28.243Z,84.95
2017-07-02T11:40:33.536Z,84.34
2017-07-02T11:41:28.758Z,84.35
2017-07-02T11:42:28.960Z,83.68
2017-07-02T11:43:23.038Z,83.48
2017-07-02T11:44:33.329Z,82.84
2017-07-02T11:45:33.389Z,83.04
2017-07-02T11:46:28.004Z,82.72
2017-07-02T11:47:23.336Z,82.57
2017-07-02T11:48:31.529Z,82.04
2017-07-02T11:49:29.000Z,81.55
2017-07-02T11:50:28.732Z,81.66
2017-07-02T11:51:28.380Z,83.25
2017-07-02T11:52:33.732Z,82.65
2017-07-02T11:53:28.929Z,82.42
2017-07-02T11:54:27.787Z,82.64
2017-07-02T11:55:34.642Z,81.25
2017-07-02T11:56:28.229Z,81.21
2017-07-02T11:57:23.995Z,81.18
2017-07-02T11:58:33.263Z,81.48
2017-07-02T11:59:23.664Z,81.74
2017-07-02T12:00:24.458Z,80.42
2017-07-02T12:01:28.559Z,80.59
2017-07-02T12:02:33.857Z,80.77
2017-07-02T12:03:28.424Z,80.53
2017-07-02T12:04:33.700Z,80.43
2017-07-02T12:05:23.400Z,79.75
2017-07-02T12:06:28.289Z,79.52
2017-07-02T12:07:30.142Z,79.15
2017-07-02T12:08:39.425Z,79.68
2017-07-02T12:09:28.144Z,80.00
2017-07-02T12:10:32.423Z,80.24
2017-07-02T12:12:33.361Z,78.38
2017-07-02T12:13:30.986Z,78.40
2017-07-02T12:14:25.483Z,78.60
2017-07-02T12:15:33.220Z,78.88
2017-07-02T12:16:33.517Z,79.17
2017-07-02T12:17:28.831Z,79.33
2017-07-02T12:18:28.964Z,79.61
2017-07-02T12:19:28.007Z,79.31
2017-07-02T12:20:35.639Z,79.18
2017-07-02T12:21:33.898Z,78.84
2017-07-02T12:22:34.202Z,78.61
2017-07-02T12:23:32.968Z,77.98
2017-07-02T12:24:33.242Z,78.08
2017-07-02T12:25:30.209Z,78.64
2017-07-02T12:26:33.496Z,78.52
2017-07-02T12:27:29.428Z,76.75
2017-07-02T12:28:29.551Z,76.86
2017-07-02T12:29:34.708Z,77.21
2017-07-02T12:30:34.127Z,77.50
2017-07-02T12:31:28.597Z,77.53
2017-07-02T12:32:33.896Z,77.59
2017-07-02T12:33:33.774Z,76.98
2017-07-02T12:34:29.002Z,77.07
2017-07-02T12:35:34.018Z,77.01
2017-07-02T12:36:28.469Z,77.29
2017-07-02T12:37:33.739Z,76.84
2017-07-02T12:38:29.206Z,76.34
2017-07-02T12:39:33.137Z,77.28
2017-07-02T12:40:33.436Z,77.77
2017-07-02T12:41:33.730Z,77.91
2017-07-02T12:42:34.029Z,79.18
2017-07-02T12:43:28.529Z,79.87
2017-07-02T12:44:33.520Z,80.33
2017-07-02T12:45:28.510Z,80.07
2017-07-02T12:46:28.511Z,79.98
2017-07-02T12:47:28.688Z,79.95
2017-07-02T12:48:28.816Z,80.47
2017-07-02T12:49:29.033Z,80.36
2017-07-02T12:50:33.311Z,80.33
2017-07-02T12:51:28.464Z,78.71
2017-07-02T12:52:33.740Z,78.77
2017-07-02T12:53:34.028Z,78.53
2017-07-02T12:54:28.219Z,78.03